createdAt,value
2022-09-20T00:01:45.058Z,3.50
2022-09-20T00:04:16.356Z,3.38
2022-09-20T00:06:48.365Z,2.95
2022-09-20T00:09:23.549Z,3.80
2022-09-20T00:11:55.814Z,3.55
2022-09-20T00:14:26.884Z,3.75
2022-09-20T00:16:58.331Z,3.25
2022-09-20T00:19:32.854Z,2.90
2022-09-20T00:22:02.452Z,3.22
2022-09-20T00:24:37.082Z,3.40
2022-09-20T00:27:07.599Z,3.22
2022-09-20T00:29:36.510Z,3.00
2022-09-20T00:32:06.783Z,2.90
2022-09-20T00:34:53.344Z,2.88
2022-09-20T00:37:26.225Z,2.80
2022-09-20T00:40:01.697Z,3.90
2022-09-20T00:42:33.954Z,3.00
2022-09-20T00:45:08.400Z,3.30
2022-09-20T00:47:48.568Z,3.45
2022-09-20T00:50:33.461Z,3.13
2022-09-20T00:53:10.395Z,2.78
2022-09-20T00:55:50.564Z,3.00
2022-09-20T00:58:24.257Z,3.13
2022-09-20T01:00:57.579Z,3.60
2022-09-20T01:03:34.840Z,3.67
2022-09-20T01:06:10.985Z,2.92
2022-09-20T01:08:42.767Z,3.55
2022-09-20T01:35:08.054Z,4.20
2022-09-20T01:41:58.379Z,4.38
2022-09-20T01:52:31.565Z,4.72
2022-09-20T01:56:25.652Z,4.50
2022-09-20T01:59:47.782Z,4.57
2022-09-20T02:03:27.576Z,4.70
2022-09-20T02:07:04.023Z,4.47
2022-09-20T02:10:26.887Z,4.30
2022-09-20T02:13:24.013Z,5.00
2022-09-20T02:16:35.531Z,4.35
2022-09-20T02:19:42.183Z,4.90
2022-09-20T02:22:32.443Z,4.78
2022-09-20T02:25:23.107Z,5.22
2022-09-20T02:28:52.998Z,4.78
2022-09-20T02:32:03.608Z,4.90
2022-09-20T02:35:19.560Z,5.00
2022-09-20T02:38:13.142Z,5.05
2022-09-20T02:41:56.944Z,4.97
2022-09-20T02:45:13.843Z,4.93
2022-09-20T02:48:05.057Z,5.13
2022-09-20T02:50:52.168Z,4.70
2022-09-20T02:56:59.301Z,4.55
2022-09-20T03:00:06.404Z,4.20
2022-09-20T03:02:59.536Z,4.68
2022-09-20T03:05:53.094Z,4.00
2022-09-20T03:08:38.787Z,4.60
2022-09-20T03:11:19.844Z,4.40
2022-09-20T03:14:23.257Z,4.03
2022-09-20T03:17:17.236Z,4.30
2022-09-20T03:20:12.935Z,3.72
2022-09-20T03:23:00.387Z,4.40
2022-09-20T03:25:46.730Z,4.03
2022-09-20T03:32:35.879Z,4.15
2022-09-20T03:35:27.305Z,3.50
2022-09-20T03:38:28.424Z,3.70
2022-09-20T03:41:36.225Z,3.80
2022-09-20T03:44:39.196Z,3.75
2022-09-20T03:47:26.790Z,3.63
2022-09-20T03:50:58.774Z,3.50
2022-09-20T03:54:16.706Z,3.80
2022-09-20T03:57:44.885Z,3.40
2022-09-20T04:00:25.290Z,3.45
2022-09-20T04:03:38.846Z,3.30
2022-09-20T04:07:25.049Z,3.75
2022-09-20T04:10:17.626Z,3.70
2022-09-20T04:13:02.985Z,3.75
2022-09-20T04:15:40.253Z,3.40
2022-09-20T04:33:01.377Z,4.22
2022-09-20T04:40:10.610Z,4.88
2022-09-20T04:59:17.691Z,3.15
2022-09-20T05:03:18.090Z,3.20
2022-09-20T05:14:55.704Z,2.85
2022-09-20T05:17:44.641Z,2.60
2022-09-20T05:20:44.783Z,3.25
2022-09-20T05:23:41.755Z,2.72
2022-09-20T05:26:20.593Z,3.10
2022-09-20T05:28:59.351Z,2.85
2022-09-20T05:34:59.800Z,3.00
2022-09-20T05:51:23.430Z,3.50
2022-09-20T06:03:14.158Z,2.78
2022-09-20T06:05:57.678Z,2.90
2022-09-20T06:09:02.902Z,2.83
2022-09-20T06:12:17.620Z,2.67
2022-09-20T06:15:00.231Z,2.70
2022-09-20T06:17:34.496Z,2.28
2022-09-20T06:20:28.371Z,2.50
2022-09-20T06:23:00.379Z,2.13
2022-09-20T06:26:00.388Z,3.97
2022-09-20T06:37:45.560Z,2.75
2022-09-20T06:40:51.549Z,2.50
2022-09-20T06:43:22.567Z,3.00
2022-09-20T06:45:52.540Z,3.55
2022-09-20T06:48:23.733Z,3.30
2022-09-20T06:51:02.529Z,3.90
2022-09-20T06:53:33.890Z,4.10
2022-09-20T06:56:05.967Z,4.13
2022-09-20T06:58:41.536Z,3.40
2022-09-20T07:01:11.459Z,3.53
2022-09-20T07:03:41.756Z,3.22
2022-09-20T07:06:11.710Z,2.90
2022-09-20T07:08:40.193Z,2.78
2022-09-20T07:11:29.338Z,2.65
2022-09-20T07:13:59.624Z,2.70
2022-09-20T07:16:28.660Z,3.10
2022-09-20T07:18:58.002Z,3.15
2022-09-20T07:21:34.203Z,2.83
2022-09-20T07:27:46.993Z,3.13
2022-09-20T07:30:30.931Z,3.47
2022-09-20T07:36:41.559Z,2.15
2022-09-20T07:43:03.343Z,2.38
2022-09-20T07:49:12.310Z,2.60
2022-09-20T08:02:59.088Z,2.08
2022-09-20T08:22:21.101Z,1.63
2022-09-20T08:25:35.824Z,1.73
2022-09-20T08:28:39.446Z,1.98
2022-09-20T08:31:37.159Z,1.75
2022-09-20T08:42:09.827Z,1.92
2022-09-20T08:46:13.249Z,1.65
2022-09-20T08:59:04.010Z,2.17
2022-09-20T09:02:24.294Z,1.58
2022-09-20T09:05:29.632Z,1.70
2022-09-20T09:11:21.180Z,1.55
2022-09-20T09:18:41.111Z,1.63
2022-09-20T09:21:44.809Z,1.42
2022-09-20T09:24:41.800Z,1.50
2022-09-20T09:28:41.143Z,1.80
2022-09-20T09:32:18.801Z,1.33
2022-09-20T09:36:04.344Z,1.45
2022-09-20T09:39:03.376Z,1.35
2022-09-20T09:42:33.215Z,1.45
2022-09-20T09:45:47.927Z,1.45
2022-09-20T09:49:35.554Z,1.50
2022-09-20T10:00:06.256Z,1.58
2022-09-20T10:04:14.482Z,1.30
2022-09-20T10:07:16.896Z,1.27
2022-09-20T10:10:57.830Z,1.50
2022-09-20T10:18:09.442Z,1.50
2022-09-20T10:21:53.627Z,1.20
2022-09-20T10:29:02.409Z,1.30
2022-09-20T10:55:20.450Z,1.55
2022-09-20T11:44:13.578Z,1.25
2022-09-20T11:47:07.935Z,1.70
2022-09-20T11:50:54.178Z,2.35
2022-09-20T12:18:20.094Z,1.33
2022-09-20T12:21:29.415Z,1.10
2022-09-20T12:24:45.147Z,1.05
2022-09-20T13:13:51.105Z,1.10
2022-09-20T13:16:33.554Z,1.25
2022-09-20T13:19:10.337Z,1.05
2022-09-20T13:21:58.422Z,1.35
2022-09-20T13:24:33.985Z,1.10
2022-09-20T13:27:38.585Z,1.98
2022-09-20T13:30:21.090Z,1.48
2022-09-20T13:32:52.362Z,1.50
2022-09-20T13:35:29.536Z,1.35
2022-09-20T13:38:05.146Z,1.48
2022-09-20T13:40:40.980Z,1.13
2022-09-20T13:43:25.993Z,1.02
2022-09-20T13:45:58.087Z,0.98
2022-09-20T13:48:53.292Z,1.15
2022-09-20T13:51:26.829Z,0.93
2022-09-20T13:53:57.422Z,1.13
2022-09-20T13:56:34.144Z,1.25
2022-09-20T13:59:06.844Z,1.00
2022-09-20T14:01:38.519Z,0.82
2022-09-20T14:04:16.054Z,1.25
2022-09-20T14:06:45.846Z,1.13
2022-09-20T14:16:09.595Z,0.85
2022-09-20T14:18:44.508Z,1.20
2022-09-20T14:21:40.203Z,1.10
2022-09-20T14:28:31.424Z,1.13
2022-09-20T14:31:19.172Z,0.80
2022-09-20T14:34:47.938Z,0.98
2022-09-20T14:42:23.106Z,1.08
2022-09-20T14:44:58.978Z,1.20
2022-09-20T14:47:35.478Z,1.10
2022-09-20T14:50:12.712Z,0.82
2022-09-20T14:53:18.482Z,0.95
2022-09-20T14:56:15.442Z,0.75
2022-09-20T15:00:00.554Z,1.00
2022-09-20T15:03:25.728Z,0.93
2022-09-20T15:41:15.855Z,1.00
2022-09-20T15:53:35.055Z,0.95
2022-09-20T16:01:12.063Z,0.90
2022-09-20T16:04:30.086Z,0.93
2022-09-20T16:07:09.545Z,0.73
2022-09-20T16:10:32.603Z,0.88
2022-09-20T16:13:19.871Z,0.85
2022-09-20T16:15:57.083Z,0.98
2022-09-20T16:18:43.999Z,0.90
2022-09-20T16:21:19.310Z,1.10
2022-09-20T16:24:05.736Z,1.75
2022-09-20T16:26:39.105Z,0.93
2022-09-20T16:29:08.620Z,0.90
2022-09-20T16:32:04.062Z,1.13
2022-09-20T16:35:02.641Z,0.90
2022-09-20T16:54:05.860Z,1.17
2022-09-20T16:56:52.094Z,0.80
2022-09-20T16:59:25.024Z,1.00
2022-09-20T17:01:55.436Z,0.98
2022-09-20T17:04:24.798Z,1.50
2022-09-20T17:06:54.948Z,0.88
2022-09-20T17:09:27.071Z,0.75
2022-09-20T17:11:56.100Z,1.00
2022-09-20T17:14:25.920Z,1.25
2022-09-20T17:16:56.444Z,0.68
2022-09-20T17:19:26.564Z,1.17
2022-09-20T17:21:57.281Z,1.05
2022-09-20T17:24:29.164Z,1.23
2022-09-20T17:27:13.451Z,1.05
2022-09-20T17:30:03.780Z,1.20
2022-09-20T17:32:49.041Z,1.25
2022-09-20T17:35:28.723Z,1.20
2022-09-20T17:38:22.104Z,1.42
2022-09-20T17:44:31.993Z,1.67
2022-09-20T17:51:15.124Z,1.20
2022-09-20T17:54:14.500Z,1.30
2022-09-20T18:00:16.474Z,1.13
2022-09-20T18:06:27.809Z,1.45
2022-09-20T18:12:25.510Z,1.42
2022-09-20T18:15:35.345Z,1.75
2022-09-20T18:21:41.525Z,1.60
2022-09-20T18:24:12.662Z,1.58
2022-09-20T18:34:29.094Z,2.80
2022-09-20T18:38:16.101Z,3.03
2022-09-20T18:45:09.836Z,2.63
2022-09-20T18:47:43.853Z,2.80
2022-09-20T18:50:29.738Z,2.60
2022-09-20T18:53:03.798Z,2.70
2022-09-20T18:55:35.893Z,2.50
2022-09-20T18:58:06.033Z,2.67
2022-09-20T19:00:43.829Z,2.38
2022-09-20T19:03:22.037Z,2.53
2022-09-20T19:06:03.718Z,3.00
2022-09-20T19:08:39.529Z,3.03
2022-09-20T19:11:13.458Z,3.30
2022-09-20T19:13:53.932Z,3.15
2022-09-20T19:16:30.667Z,3.53
2022-09-20T19:19:23.393Z,3.70
2022-09-20T19:22:00.582Z,4.20
2022-09-20T19:25:04.478Z,4.22
2022-09-20T19:27:33.889Z,4.20
2022-09-20T19:30:02.948Z,4.05
2022-09-20T19:32:37.466Z,4.00
2022-09-20T19:35:07.520Z,4.25
2022-09-20T19:37:49.887Z,3.95
2022-09-20T19:40:35.941Z,4.55
2022-09-20T19:44:32.061Z,4.10
2022-09-20T20:00:33.129Z,4.32
2022-09-20T20:12:26.304Z,4.03
2022-09-20T20:24:00.238Z,4.00
2022-09-20T20:26:29.769Z,3.72
2022-09-20T20:28:58.377Z,3.60
2022-09-20T20:31:26.983Z,4.15
2022-09-20T20:33:55.972Z,4.30
2022-09-20T20:36:24.562Z,3.70
2022-09-20T20:38:55.199Z,3.60
2022-09-20T20:41:23.774Z,3.53
2022-09-20T20:43:56.117Z,3.13
2022-09-20T20:46:25.833Z,3.80
2022-09-20T20:48:54.308Z,4.38
2022-09-20T20:51:24.311Z,4.60
2022-09-20T20:53:55.695Z,6.43
2022-09-20T20:56:26.997Z,6.78
2022-09-20T20:58:57.733Z,9.05
2022-09-20T21:01:29.076Z,9.70
2022-09-20T21:03:58.581Z,9.60
2022-09-20T21:06:30.785Z,8.13
2022-09-20T21:09:00.537Z,6.85
2022-09-20T21:11:31.186Z,5.93
2022-09-20T21:14:02.099Z,5.60
2022-09-20T21:16:35.730Z,5.75
2022-09-20T21:19:05.305Z,5.53
2022-09-20T21:21:36.453Z,9.23
2022-09-20T21:24:08.482Z,7.68
2022-09-20T21:26:38.200Z,10.85
2022-09-20T21:29:08.402Z,10.10
2022-09-20T21:31:39.155Z,10.32
2022-09-20T21:34:08.279Z,9.52
2022-09-20T21:36:37.808Z,9.70
2022-09-20T21:39:07.801Z,7.80
2022-09-20T21:41:38.671Z,8.07
2022-09-20T21:44:09.935Z,7.85
2022-09-20T21:46:40.508Z,8.43
2022-09-20T21:49:11.270Z,7.80
2022-09-20T21:51:42.759Z,7.70
2022-09-20T21:54:12.825Z,7.03
2022-09-20T21:56:41.866Z,6.72
2022-09-20T21:59:20.586Z,7.13
2022-09-20T22:01:51.984Z,6.40
2022-09-20T22:04:29.542Z,6.90
2022-09-20T22:07:05.713Z,7.00
2022-09-20T22:09:45.633Z,6.65
2022-09-20T22:12:16.559Z,6.82
2022-09-20T22:14:48.428Z,7.13
2022-09-20T22:17:34.266Z,6.90
2022-09-20T22:20:19.054Z,6.95
2022-09-20T22:23:00.131Z,7.05
2022-09-20T22:25:36.643Z,7.10
2022-09-20T22:28:07.832Z,6.88
2022-09-20T22:30:39.470Z,6.95
2022-09-20T22:33:14.880Z,7.45
2022-09-20T22:35:57.753Z,7.13
2022-09-20T22:38:27.722Z,7.40
2022-09-20T22:41:01.972Z,6.82
2022-09-20T22:43:42.587Z,6.82
2022-09-20T22:46:14.565Z,6.93
2022-09-20T22:49:09.506Z,6.82
2022-09-20T22:51:45.224Z,6.55
2022-09-20T22:54:19.813Z,7.97
2022-09-20T22:56:59.760Z,7.65
2022-09-20T22:59:43.723Z,6.90
2022-09-20T23:02:25.808Z,7.65
2022-09-20T23:05:13.364Z,7.07
2022-09-20T23:11:07.910Z,6.72
2022-09-20T23:13:40.964Z,6.15
2022-09-20T23:16:26.745Z,6.28
2022-09-20T23:19:05.195Z,6.18
2022-09-20T23:21:50.732Z,6.15
2022-09-20T23:24:41.410Z,6.25
2022-09-20T23:27:25.473Z,5.88
2022-09-20T23:30:16.546Z,5.90
2022-09-20T23:32:59.415Z,5.38
2022-09-20T23:35:39.460Z,5.72
2022-09-20T23:38:19.389Z,5.75
2022-09-20T23:40:55.653Z,5.97
2022-09-20T23:46:19.533Z,6.20
2022-09-20T23:48:54.302Z,5.55
2022-09-20T23:54:32.198Z,5.30
2022-09-20T23:57:24.683Z,5.65
